Time;durP1;ratioP1;P1;durP2;ratioP2;P2;SDS_P1;SDS_P2;PMS_P1;PMS_P2;Temp;Humidity;BMP_temperature;BMP_pressure;BME280_temperature;BME280_humidity;BME280_pressure;Samples;Min_cycle;Max_cycle;Signal;HPM_P1;HPM_P2
2022/07/31 00:00:47;;;;;;;2.42;2.22;;;19.90;60.70;;;;;;5036465;28;20028;-72
2022/07/31 00:03:13;;;;;;;2.78;2.40;;;19.80;60.80;;;;;;5053107;28;20029;-72
2022/07/31 00:05:38;;;;;;;2.55;2.25;;;19.80;60.80;;;;;;5044015;28;20040;-73
2022/07/31 00:08:04;;;;;;;3.10;2.60;;;19.80;60.80;;;;;;5036536;28;20036;-72
2022/07/31 00:10:29;;;;;;;2.88;2.10;;;19.80;60.80;;;;;;5055802;28;20032;-73
2022/07/31 00:12:55;;;;;;;5.20;2.67;;;19.70;60.80;;;;;;5036156;28;20074;-73
2022/07/31 00:15:20;;;;;;;4.68;2.38;;;19.70;61.00;;;;;;5048536;28;20037;-72
2022/07/31 00:17:46;;;;;;;2.63;2.30;;;19.60;61.10;;;;;;5065442;28;20063;-72
2022/07/31 00:20:14;;;;;;;2.38;2.08;;;19.60;61.10;;;;;;5039409;28;20040;-73
2022/07/31 00:22:46;;;;;;;3.25;2.88;;;19.60;61.20;;;;;;5053453;28;20032;-72
2022/07/31 00:25:12;;;;;;;3.97;2.67;;;19.60;61.70;;;;;;5037989;28;20055;-72
2022/07/31 00:27:39;;;;;;;3.00;2.67;;;19.40;61.60;;;;;;5054517;28;20032;-73
2022/07/31 00:30:05;;;;;;;3.28;2.53;;;19.40;61.90;;;;;;5055045;28;20055;-72
2022/07/31 00:32:30;;;;;;;3.10;2.25;;;19.40;61.80;;;;;;5045803;28;20032;-73
2022/07/31 00:34:56;;;;;;;3.08;2.55;;;19.30;61.80;;;;;;5054394;28;20289;-72
2022/07/31 00:37:21;;;;;;;4.35;2.35;;;19.30;62.00;;;;;;5037322;28;20044;-71
2022/07/31 00:39:47;;;;;;;2.85;2.55;;;19.20;62.10;;;;;;5031808;28;20047;-72
2022/07/31 00:42:30;;;;;;;3.58;3.10;;;19.20;62.20;;;;;;5039057;28;20055;-72
2022/07/31 00:44:56;;;;;;;3.08;2.30;;;19.20;62.80;;;;;;5014339;28;20048;-72
2022/07/31 00:47:21;;;;;;;2.50;2.30;;;19.20;62.40;;;;;;5041918;28;20044;-72
2022/07/31 00:49:47;;;;;;;4.13;2.90;;;19.10;62.30;;;;;;5030249;28;20072;-72
2022/07/31 00:52:12;;;;;;;3.63;2.65;;;19.10;62.30;;;;;;5041555;28;20504;-72
2022/07/31 00:54:38;;;;;;;4.45;2.88;;;19.10;62.30;;;;;;5012056;28;20440;-72
2022/07/31 00:57:04;;;;;;;2.90;2.17;;;19.10;62.40;;;;;;5055329;28;20484;-72
2022/07/31 00:59:29;;;;;;;4.40;2.42;;;19.10;62.50;;;;;;5046698;28;20044;-71
2022/07/31 01:01:55;;;;;;;2.53;2.33;;;19.10;62.50;;;;;;5049284;28;20146;-72
2022/07/31 01:04:21;;;;;;;3.00;2.67;;;19.10;62.50;;;;;;5046299;28;20035;-72
2022/07/31 01:06:46;;;;;;;2.92;2.72;;;19.10;62.70;;;;;;5042790;28;20069;-71
2022/07/31 01:09:15;;;;;;;2.55;2.35;;;19.00;62.80;;;;;;5040315;28;20520;-73
2022/07/31 01:11:51;;;;;;;5.30;3.05;;;19.00;62.90;;;;;;4999335;28;20037;-73
2022/07/31 01:14:18;;;;;;;4.70;3.35;;;19.00;63.10;;;;;;5040979;28;20095;-71
2022/07/31 01:16:45;;;;;;;2.72;2.53;;;18.90;63.00;;;;;;5042579;28;20486;-72
2022/07/31 01:19:17;;;;;;;3.03;2.72;;;18.90;63.20;;;;;;5027875;28;20033;-73
2022/07/31 01:21:48;;;;;;;3.20;2.47;;;18.90;63.30;;;;;;5057960;28;20071;-71
2022/07/31 01:24:34;;;;;;;4.28;2.72;;;18.80;63.50;;;;;;5023828;28;20071;-71
2022/07/31 01:27:05;;;;;;;3.15;2.85;;;18.80;63.50;;;;;;4997321;28;20079;-72
2022/07/31 01:29:36;;;;;;;2.80;2.60;;;18.70;63.70;;;;;;5039036;28;20032;-72
2022/07/31 01:32:03;;;;;;;3.38;2.90;;;18.70;63.80;;;;;;5045842;28;20087;-71
2022/07/31 01:34:48;;;;;;;4.65;2.47;;;18.60;63.90;;;;;;5042258;28;20029;-71
2022/07/31 01:37:22;;;;;;;3.85;3.00;;;18.60;64.50;;;;;;5029885;28;20122;-71
2022/07/31 01:40:03;;;;;;;4.32;2.80;;;18.50;64.40;;;;;;5020276;28;21192;-72
2022/07/31 01:42:29;;;;;;;2.83;2.60;;;18.50;65.30;;;;;;5044951;28;20044;-72
2022/07/31 01:44:56;;;;;;;4.57;2.80;;;18.50;64.40;;;;;;5040418;28;20167;-71
2022/07/31 01:47:22;;;;;;;2.97;2.72;;;18.50;64.50;;;;;;5020785;28;20074;-72
2022/07/31 01:49:48;;;;;;;5.78;2.33;;;18.50;64.50;;;;;;5036274;28;20113;-72
2022/07/31 01:52:14;;;;;;;3.22;2.53;;;18.40;64.50;;;;;;5053049;28;20032;-72
2022/07/31 01:54:39;;;;;;;3.60;2.90;;;18.40;64.50;;;;;;5015167;28;20090;-73
2022/07/31 01:57:05;;;;;;;3.38;2.72;;;18.40;64.60;;;;;;5056659;28;20127;-73
2022/07/31 01:59:30;;;;;;;4.32;3.22;;;18.40;65.40;;;;;;5040928;28;20035;-72
2022/07/31 02:01:56;;;;;;;3.25;2.95;;;18.40;64.70;;;;;;5051762;28;20082;-72
2022/07/31 02:04:21;;;;;;;6.22;3.40;;;18.40;64.90;;;;;;5044089;28;20074;-73
2022/07/31 02:06:48;;;;;;;3.50;3.20;;;18.30;65.00;;;;;;5037550;28;20045;-72
2022/07/31 02:09:14;;;;;;;3.15;2.85;;;18.30;65.30;;;;;;5034558;28;20045;-72
2022/07/31 02:11:40;;;;;;;3.00;2.80;;;18.30;65.30;;;;;;5013242;28;20107;-72
2022/07/31 02:14:05;;;;;;;3.13;2.83;;;18.20;65.50;;;;;;5066395;28;20042;-71
2022/07/31 02:16:31;;;;;;;3.88;3.13;;;18.20;65.70;;;;;;5044659;28;20030;-71
2022/07/31 02:18:56;;;;;;;3.85;2.92;;;18.20;65.70;;;;;;5076938;28;20104;-71
2022/07/31 02:21:25;;;;;;;5.95;3.17;;;18.20;65.70;;;;;;5031574;28;20064;-72
2022/07/31 02:23:51;;;;;;;5.38;3.00;;;18.10;65.90;;;;;;5042829;28;20040;-72
2022/07/31 02:26:16;;;;;;;3.58;2.83;;;18.10;65.90;;;;;;5042544;28;20041;-72
2022/07/31 02:28:42;;;;;;;4.03;2.83;;;18.10;66.10;;;;;;5041661;28;20051;-72
2022/07/31 02:31:10;;;;;;;5.20;3.10;;;18.10;66.00;;;;;;5004090;28;20111;-72
2022/07/31 02:33:35;;;;;;;4.05;2.90;;;18.10;66.10;;;;;;5047583;28;20036;-73
2022/07/31 02:36:01;;;;;;;3.13;2.88;;;18.10;66.10;;;;;;5042302;28;20035;-73
2022/07/31 02:38:27;;;;;;;3.42;2.67;;;18.10;66.20;;;;;;5045927;28;20036;-72
2022/07/31 02:40:55;;;;;;;6.68;3.20;;;18.10;66.10;;;;;;5026250;28;20041;-72
2022/07/31 02:43:20;;;;;;;3.60;3.03;;;18.10;66.10;;;;;;5046861;28;20059;-73
2022/07/31 02:45:46;;;;;;;3.22;2.55;;;18.10;66.20;;;;;;5052986;28;20025;-72
2022/07/31 02:48:11;;;;;;;3.10;2.80;;;18.00;66.10;;;;;;5070403;28;20539;-72
2022/07/31 02:50:37;;;;;;;3.33;3.03;;;18.00;66.10;;;;;;5017793;28;20520;-73
2022/07/31 02:53:03;;;;;;;3.33;3.08;;;18.00;66.10;;;;;;5028526;28;20472;-74
2022/07/31 02:55:29;;;;;;;3.30;3.00;;;18.00;66.30;;;;;;5056060;28;20027;-73
2022/07/31 02:57:54;;;;;;;3.22;2.85;;;18.00;66.40;;;;;;5052077;28;20024;-73
2022/07/31 03:00:25;;;;;;;3.88;3.50;;;18.00;66.60;;;;;;5036581;28;20550;-72
2022/07/31 03:02:52;;;;;;;4.03;3.03;;;18.00;66.60;;;;;;5059208;28;20040;-74
2022/07/31 03:05:18;;;;;;;3.97;2.88;;;18.00;66.80;;;;;;5050834;28;20030;-72
2022/07/31 03:07:44;;;;;;;3.15;2.70;;;18.00;66.80;;;;;;5036622;28;20032;-72
2022/07/31 03:10:09;;;;;;;3.75;3.35;;;17.90;66.70;;;;;;5050812;28;20036;-73
2022/07/31 03:12:38;;;;;;;3.60;3.30;;;18.00;66.80;;;;;;5060335;28;20052;-73
2022/07/31 03:15:08;;;;;;;4.47;3.00;;;17.90;66.90;;;;;;5037698;28;20071;-73
2022/07/31 03:17:35;;;;;;;6.38;2.97;;;17.90;67.20;;;;;;5059913;28;20039;-73
2022/07/31 03:20:00;;;;;;;4.18;3.17;;;17.90;67.20;;;;;;5050077;28;20542;-72
2022/07/31 03:22:26;;;;;;;3.30;2.70;;;17.90;67.30;;;;;;5039778;28;20040;-72
2022/07/31 03:24:52;;;;;;;4.82;2.80;;;17.80;67.20;;;;;;5043807;28;20028;-72
2022/07/31 03:27:18;;;;;;;3.17;2.88;;;17.80;67.20;;;;;;5051812;28;20044;-73
2022/07/31 03:29:43;;;;;;;3.22;2.80;;;17.80;67.30;;;;;;5040877;28;20160;-73
2022/07/31 03:32:09;;;;;;;3.67;3.00;;;17.80;67.50;;;;;;5033719;28;20511;-73
2022/07/31 03:34:34;;;;;;;4.88;3.00;;;17.80;67.60;;;;;;5060707;28;20540;-73
2022/07/31 03:37:00;;;;;;;3.00;2.80;;;17.80;67.70;;;;;;5057190;28;20033;-73
2022/07/31 03:39:25;;;;;;;3.30;3.03;;;17.80;67.70;;;;;;5051435;28;20040;-73
2022/07/31 03:41:51;;;;;;;4.05;2.95;;;17.80;67.80;;;;;;5046976;28;20036;-73
2022/07/31 03:44:17;;;;;;;3.40;2.90;;;17.70;67.80;;;;;;5080443;28;20071;-72
2022/07/31 03:46:42;;;;;;;3.13;2.83;;;17.70;67.80;;;;;;5035142;28;20039;-73
2022/07/31 03:49:08;;;;;;;3.28;2.65;;;17.80;68.00;;;;;;5026930;28;20588;-73
2022/07/31 03:51:33;;;;;;;3.28;2.97;;;17.80;68.00;;;;;;5041523;28;20032;-72
2022/07/31 03:53:59;;;;;;;2.83;2.50;;;17.80;67.90;;;;;;5020667;28;20047;-72
2022/07/31 03:56:25;;;;;;;4.18;2.75;;;17.80;67.90;;;;;;5031350;28;20087;-73
2022/07/31 03:58:50;;;;;;;3.40;3.10;;;17.80;67.80;;;;;;5017946;28;20065;-73
2022/07/31 04:01:16;;;;;;;3.35;3.05;;;17.90;67.80;;;;;;5046194;28;20086;-73
2022/07/31 04:03:41;;;;;;;3.53;3.22;;;17.80;67.70;;;;;;5051728;28;20063;-73
2022/07/31 04:06:07;;;;;;;3.42;3.05;;;17.90;68.00;;;;;;5052763;28;20036;-72
2022/07/31 04:08:33;;;;;;;4.05;3.10;;;17.80;67.90;;;;;;5048153;28;20457;-74
2022/07/31 04:10:58;;;;;;;5.63;3.00;;;17.90;68.10;;;;;;5064221;28;20114;-73
2022/07/31 04:13:24;;;;;;;3.17;2.75;;;17.80;68.00;;;;;;5048633;28;20109;-73
2022/07/31 04:15:49;;;;;;;3.72;3.33;;;17.80;68.10;;;;;;5057172;28;20471;-73
2022/07/31 04:18:15;;;;;;;3.40;3.10;;;17.80;68.20;;;;;;5019078;28;20029;-72
2022/07/31 04:20:40;;;;;;;3.25;2.80;;;17.80;68.50;;;;;;5031665;28;20025;-74
2022/07/31 04:23:06;;;;;;;3.72;2.85;;;17.80;68.80;;;;;;5036245;28;20042;-72
2022/07/31 04:25:32;;;;;;;4.95;2.88;;;17.80;68.70;;;;;;5025620;28;20059;-73
2022/07/31 04:27:59;;;;;;;2.88;2.67;;;17.80;68.70;;;;;;5050974;28;20033;-73
2022/07/31 04:30:24;;;;;;;3.72;3.10;;;17.80;68.80;;;;;;5017621;28;20040;-73
2022/07/31 04:32:50;;;;;;;3.47;2.92;;;17.80;68.80;;;;;;5052296;28;20039;-73
2022/07/31 04:35:16;;;;;;;3.22;2.75;;;17.80;68.80;;;;;;5062900;28;20036;-73
2022/07/31 04:37:41;;;;;;;4.20;3.05;;;17.80;68.70;;;;;;5071962;28;20028;-73
2022/07/31 04:40:07;;;;;;;3.15;2.85;;;17.80;68.80;;;;;;5038317;28;20035;-72
2022/07/31 04:42:33;;;;;;;2.97;2.70;;;17.80;68.80;;;;;;5055075;28;20143;-73
2022/07/31 04:44:58;;;;;;;6.35;3.45;;;17.80;68.80;;;;;;5044029;28;20946;-73
2022/07/31 04:47:24;;;;;;;4.85;3.55;;;17.80;68.70;;;;;;5031996;28;20571;-73
2022/07/31 04:49:49;;;;;;;3.75;3.05;;;17.90;68.90;;;;;;5056925;28;20111;-72
2022/07/31 04:52:15;;;;;;;3.58;3.28;;;17.90;69.10;;;;;;5045013;28;20732;-72
2022/07/31 04:54:40;;;;;;;4.68;3.00;;;18.00;69.00;;;;;;5036040;28;20091;-72
2022/07/31 04:57:06;;;;;;;2.72;2.53;;;17.90;69.00;;;;;;5006637;28;20044;-73
2022/07/31 04:59:31;;;;;;;3.17;2.88;;;18.00;68.80;;;;;;5057222;28;20036;-72
2022/07/31 05:01:57;;;;;;;3.08;2.83;;;18.00;68.70;;;;;;5053818;28;20044;-73
2022/07/31 05:04:22;;;;;;;2.92;2.72;;;18.00;68.70;;;;;;5042792;28;20086;-73
2022/07/31 05:06:49;;;;;;;3.50;3.20;;;18.10;68.60;;;;;;5059294;28;20043;-73
2022/07/31 05:09:19;;;;;;;3.58;3.28;;;18.10;68.60;;;;;;5040529;28;20090;-72
2022/07/31 05:11:45;;;;;;;3.30;3.00;;;18.10;68.50;;;;;;5052272;28;20062;-72
2022/07/31 05:14:12;;;;;;;4.10;3.80;;;18.10;68.30;;;;;;5046156;28;20040;-72
2022/07/31 05:16:37;;;;;;;4.13;3.55;;;18.20;68.40;;;;;;5035110;28;21319;-72
2022/07/31 05:19:03;;;;;;;3.53;3.10;;;18.20;68.60;;;;;;5027661;28;20046;-72
2022/07/31 05:21:31;;;;;;;5.43;3.90;;;18.20;69.10;;;;;;5041882;28;20068;-72
2022/07/31 05:23:58;;;;;;;5.03;3.75;;;18.30;68.60;;;;;;5033556;28;20041;-72
2022/07/31 05:26:23;;;;;;;6.10;3.58;;;18.30;68.80;;;;;;5039169;28;20501;-72
2022/07/31 05:28:50;;;;;;;6.97;3.30;;;18.30;68.90;;;;;;4994624;28;20049;-73
2022/07/31 05:31:16;;;;;;;3.28;2.92;;;18.40;68.90;;;;;;4999569;28;20037;-73
2022/07/31 05:33:42;;;;;;;3.92;3.35;;;18.50;68.80;;;;;;5026675;28;20045;-73
2022/07/31 05:36:07;;;;;;;3.47;3.17;;;18.50;68.60;;;;;;5011412;28;20079;-71
2022/07/31 05:38:33;;;;;;;4.00;3.60;;;18.50;68.40;;;;;;5002000;28;20087;-72
2022/07/31 05:40:58;;;;;;;4.28;3.40;;;18.60;68.70;;;;;;5025997;28;20040;-72
2022/07/31 05:43:24;;;;;;;4.95;3.85;;;18.60;68.60;;;;;;5025846;28;20040;-72
2022/07/31 05:45:50;;;;;;;4.15;3.80;;;18.70;68.50;;;;;;5000907;28;20044;-73
2022/07/31 05:48:15;;;;;;;6.55;4.00;;;18.80;68.60;;;;;;5014780;28;20032;-72
2022/07/31 05:50:44;;;;;;;4.28;3.30;;;18.80;68.50;;;;;;5014282;28;20452;-72
2022/07/31 05:53:16;;;;;;;4.85;3.88;;;18.90;68.60;;;;;;5017432;28;20485;-73
2022/07/31 05:55:42;;;;;;;4.25;3.65;;;18.90;68.40;;;;;;5043464;28;20323;-73
2022/07/31 05:58:08;;;;;;;4.60;3.88;;;19.00;68.40;;;;;;4996745;28;20095;-73
2022/07/31 06:00:34;;;;;;;4.25;3.85;;;19.00;68.40;;;;;;5017044;28;20032;-72
2022/07/31 06:02:59;;;;;;;5.75;3.67;;;19.00;68.20;;;;;;5025410;28;20035;-72
2022/07/31 06:05:26;;;;;;;4.50;3.47;;;19.10;68.20;;;;;;5014661;28;20033;-72
2022/07/31 06:07:52;;;;;;;5.25;4.30;;;19.20;68.10;;;;;;4973299;28;20072;-74
2022/07/31 06:10:17;;;;;;;3.50;3.20;;;19.20;68.00;;;;;;5004036;28;20045;-72
2022/07/31 06:12:43;;;;;;;5.43;3.30;;;19.30;68.00;;;;;;5025687;28;20577;-73
2022/07/31 06:15:08;;;;;;;3.92;3.63;;;19.40;67.90;;;;;;5007385;28;20033;-72
2022/07/31 06:17:36;;;;;;;4.78;4.18;;;19.50;67.70;;;;;;5024612;28;20041;-73
2022/07/31 06:20:02;;;;;;;5.28;4.43;;;19.60;68.30;;;;;;5023889;28;20035;-73
2022/07/31 06:22:27;;;;;;;5.15;4.10;;;19.70;67.60;;;;;;5015921;28;20680;-72
2022/07/31 06:24:53;;;;;;;6.35;4.57;;;19.80;67.70;;;;;;5036254;28;20041;-72
2022/07/31 06:27:18;;;;;;;6.25;3.80;;;19.90;67.60;;;;;;5026353;28;20560;-72
2022/07/31 06:29:44;;;;;;;4.30;3.45;;;20.00;67.50;;;;;;5055713;28;20038;-73
2022/07/31 06:32:09;;;;;;;6.13;3.80;;;20.10;67.30;;;;;;5048441;28;20036;-72
2022/07/31 06:34:35;;;;;;;5.60;4.35;;;20.30;67.20;;;;;;5049358;28;20497;-72
2022/07/31 06:37:00;;;;;;;3.42;3.13;;;20.40;66.90;;;;;;5078269;28;20218;-72
2022/07/31 06:39:26;;;;;;;3.45;3.15;;;20.50;67.50;;;;;;5048350;28;22059;-72
2022/07/31 06:41:52;;;;;;;5.80;3.15;;;20.60;66.40;;;;;;5033814;28;20536;-73
2022/07/31 06:44:18;;;;;;;3.83;3.38;;;20.70;66.10;;;;;;5058722;28;20116;-72
2022/07/31 06:46:44;;;;;;;5.68;3.63;;;20.80;66.00;;;;;;5059581;28;20057;-73
2022/07/31 06:49:10;;;;;;;5.40;3.08;;;21.00;65.80;;;;;;5031978;28;20052;-72
2022/07/31 06:51:35;;;;;;;4.57;3.05;;;21.00;65.60;;;;;;5062625;28;20064;-73
2022/07/31 06:54:02;;;;;;;4.07;3.20;;;21.10;65.40;;;;;;5042863;28;20060;-73
2022/07/31 06:56:28;;;;;;;3.90;3.60;;;21.30;65.30;;;;;;5033284;28;20596;-72
2022/07/31 06:58:54;;;;;;;3.78;3.40;;;21.40;65.10;;;;;;5032173;28;20040;-72
2022/07/31 07:01:19;;;;;;;3.00;2.72;;;21.50;65.00;;;;;;5042968;28;20101;-72
2022/07/31 07:03:45;;;;;;;2.75;2.50;;;21.60;64.80;;;;;;5067541;28;20585;-72
2022/07/31 07:06:11;;;;;;;4.57;3.40;;;21.70;64.50;;;;;;5025980;28;20063;-73
2022/07/31 07:08:36;;;;;;;4.90;3.67;;;21.80;64.20;;;;;;5041297;28;20055;-72
2022/07/31 07:11:02;;;;;;;3.50;3.20;;;21.90;64.10;;;;;;5037046;28;20039;-73
2022/07/31 07:13:28;;;;;;;3.50;2.95;;;22.00;63.90;;;;;;5048304;28;20036;-72
2022/07/31 07:15:53;;;;;;;5.78;3.63;;;22.10;63.80;;;;;;5034779;28;20610;-73
2022/07/31 07:18:20;;;;;;;3.35;3.05;;;22.20;63.60;;;;;;5023541;28;20110;-72
2022/07/31 07:20:46;;;;;;;4.57;3.42;;;22.30;63.50;;;;;;5037981;28;20020;-73
2022/07/31 07:23:12;;;;;;;6.60;2.90;;;22.40;63.30;;;;;;5040980;28;20047;-72
2022/07/31 07:25:37;;;;;;;3.30;3.03;;;22.50;63.10;;;;;;5055462;28;20066;-72
2022/07/31 07:28:03;;;;;;;5.25;4.10;;;22.60;62.80;;;;;;5046285;28;20040;-73
2022/07/31 07:30:29;;;;;;;3.63;3.33;;;22.70;62.60;;;;;;5009417;28;20078;-73
2022/07/31 07:32:54;;;;;;;3.53;2.97;;;22.80;62.40;;;;;;5012386;28;20044;-73
2022/07/31 07:35:20;;;;;;;3.50;2.95;;;22.90;62.20;;;;;;4998173;28;20037;-73
2022/07/31 07:37:46;;;;;;;5.80;3.40;;;23.10;61.90;;;;;;5018929;28;20113;-72
2022/07/31 07:40:12;;;;;;;5.90;3.70;;;23.20;61.50;;;;;;5033414;28;20745;-72
2022/07/31 07:42:37;;;;;;;6.93;3.15;;;23.30;61.30;;;;;;5041958;28;20044;-73
2022/07/31 07:45:03;;;;;;;4.00;2.85;;;23.30;61.20;;;;;;5030255;28;20032;-74
2022/07/31 07:47:29;;;;;;;4.30;3.45;;;23.40;61.10;;;;;;5045997;28;20040;-74
2022/07/31 07:49:54;;;;;;;2.90;2.70;;;23.40;60.80;;;;;;5066038;28;20036;-72
2022/07/31 07:52:20;;;;;;;4.63;3.10;;;23.50;60.70;;;;;;5054000;28;20052;-72
2022/07/31 07:54:46;;;;;;;6.70;3.50;;;23.60;60.40;;;;;;5059007;28;20162;-73
2022/07/31 07:57:19;;;;;;;3.63;2.97;;;23.70;60.10;;;;;;5036241;28;20563;-74
2022/07/31 07:59:44;;;;;;;3.25;2.92;;;23.70;59.90;;;;;;5037617;28;20032;-72
2022/07/31 08:02:11;;;;;;;3.15;2.78;;;23.80;59.80;;;;;;5034900;28;20043;-73
2022/07/31 08:04:37;;;;;;;3.95;2.60;;;23.90;59.60;;;;;;5058684;28;20029;-74
2022/07/31 08:07:02;;;;;;;3.20;2.90;;;23.90;59.40;;;;;;5032069;28;20041;-73
2022/07/31 08:09:29;;;;;;;3.17;2.70;;;24.00;59.30;;;;;;5062806;28;20055;-75
2022/07/31 08:11:54;;;;;;;5.85;3.08;;;24.00;59.10;;;;;;5035247;28;20029;-76
2022/07/31 08:14:20;;;;;;;3.10;2.90;;;24.10;59.00;;;;;;5025611;28;20048;-72
2022/07/31 08:16:45;;;;;;;3.50;2.60;;;24.20;59.50;;;;;;5039591;28;20136;-71
2022/07/31 08:19:11;;;;;;;3.20;2.83;;;24.30;58.70;;;;;;5012743;28;20030;-72
2022/07/31 08:21:38;;;;;;;3.38;3.08;;;24.40;58.50;;;;;;5049114;28;20035;-73
2022/07/31 08:24:04;;;;;;;3.95;3.15;;;24.50;58.40;;;;;;5047047;28;20062;-73
2022/07/31 08:27:22;;;;;;;3.50;2.72;;;24.50;58.20;;;;;;5075979;28;20028;-72
2022/07/31 08:29:15;;;;;;;2.80;2.60;;;24.60;58.10;;;;;;5015709;28;20671;-71
2022/07/31 08:31:40;;;;;;;3.25;2.95;;;24.70;57.80;;;;;;5021756;28;20037;-72
2022/07/31 08:34:06;;;;;;;4.15;3.35;;;24.80;57.70;;;;;;5003747;28;20029;-72
2022/07/31 08:36:32;;;;;;;6.85;3.10;;;24.90;57.50;;;;;;5012627;28;20041;-73
2022/07/31 08:38:57;;;;;;;3.88;2.80;;;25.00;57.30;;;;;;4956184;28;20651;-73
2022/07/31 08:41:23;;;;;;;3.65;3.17;;;25.00;57.00;;;;;;4994399;28;20044;-73
2022/07/31 08:43:48;;;;;;;3.38;3.08;;;25.10;56.90;;;;;;5000661;28;20124;-71
2022/07/31 08:46:14;;;;;;;6.63;3.22;;;25.20;56.70;;;;;;5010260;28;20120;-72
2022/07/31 08:48:40;;;;;;;5.72;2.95;;;25.40;56.50;;;;;;5008473;28;20072;-71
2022/07/31 08:51:06;;;;;;;3.13;2.58;;;25.50;56.30;;;;;;5007906;28;20408;-71
2022/07/31 08:53:34;;;;;;;3.42;2.80;;;25.60;56.10;;;;;;5010613;28;20656;-73
2022/07/31 08:55:59;;;;;;;3.33;2.70;;;25.80;55.90;;;;;;4974967;28;20141;-72
2022/07/31 08:58:25;;;;;;;4.70;2.92;;;26.00;55.50;;;;;;5018665;28;20032;-71
2022/07/31 09:00:50;;;;;;;4.28;2.60;;;26.10;55.10;;;;;;5008376;28;20106;-72
2022/07/31 09:03:16;;;;;;;2.63;2.42;;;26.30;54.30;;;;;;4996114;28;20071;-72
2022/07/31 09:05:42;;;;;;;3.45;2.90;;;26.40;53.80;;;;;;4971357;28;20038;-71
2022/07/31 09:08:07;;;;;;;5.78;2.63;;;26.50;53.30;;;;;;5008748;28;21876;-71
2022/07/31 09:10:33;;;;;;;3.25;2.45;;;26.70;53.00;;;;;;5005155;28;20029;-71
2022/07/31 09:12:58;;;;;;;5.15;2.72;;;26.80;52.70;;;;;;4984847;28;20038;-71
2022/07/31 09:15:26;;;;;;;3.25;2.25;;;27.00;52.50;;;;;;5037767;28;20060;-71
2022/07/31 09:17:52;;;;;;;3.67;2.60;;;27.20;52.30;;;;;;5025732;28;20143;-71
2022/07/31 09:20:19;;;;;;;3.42;2.42;;;27.40;51.80;;;;;;5010794;28;20467;-71
2022/07/31 09:22:45;;;;;;;4.50;2.55;;;27.60;51.40;;;;;;5026609;28;20037;-72
2022/07/31 09:25:14;;;;;;;3.10;2.00;;;27.70;50.90;;;;;;5022194;28;20043;-72
2022/07/31 09:27:40;;;;;;;3.75;2.10;;;27.70;50.50;;;;;;5016175;28;20048;-73
2022/07/31 09:30:06;;;;;;;2.08;1.80;;;27.80;50.20;;;;;;5038750;28;20090;-72
2022/07/31 09:32:32;;;;;;;4.03;2.28;;;28.00;49.90;;;;;;5027069;28;20043;-72
2022/07/31 09:35:08;;;;;;;3.38;2.22;;;28.20;49.60;;;;;;5032203;28;20029;-72
2022/07/31 09:37:34;;;;;;;3.63;2.15;;;28.30;48.40;;;;;;5030603;28;20107;-71
2022/07/31 09:40:00;;;;;;;2.83;2.10;;;28.50;48.80;;;;;;5024334;28;20128;-71
2022/07/31 09:42:34;;;;;;;3.35;1.90;;;28.60;48.50;;;;;;5048252;28;20055;-71
2022/07/31 09:45:00;;;;;;;2.33;1.85;;;28.80;47.60;;;;;;4999807;28;20037;-72
2022/07/31 09:47:28;;;;;;;4.32;2.28;;;29.00;47.80;;;;;;5035252;28;20561;-71
2022/07/31 09:50:03;;;;;;;3.30;1.90;;;29.30;47.40;;;;;;5043573;28;20570;-72
2022/07/31 09:52:30;;;;;;;3.95;1.60;;;29.50;46.40;;;;;;5015094;28;20040;-71
2022/07/31 09:55:07;;;;;;;3.72;1.67;;;29.60;46.40;;;;;;5021613;28;20077;-70
2022/07/31 09:57:34;;;;;;;2.55;1.65;;;29.90;45.30;;;;;;5045722;28;20067;-71
2022/07/31 10:00:00;;;;;;;2.25;1.38;;;30.10;45.50;;;;;;5059722;28;20037;-70
2022/07/31 10:02:26;;;;;;;4.07;1.52;;;30.30;45.00;;;;;;5032350;28;20708;-71
2022/07/31 10:04:52;;;;;;;1.30;1.20;;;30.50;44.60;;;;;;5034451;28;20044;-72
2022/07/31 10:07:18;;;;;;;2.97;1.35;;;30.70;44.30;;;;;;5042374;28;20451;-72
2022/07/31 10:09:43;;;;;;;1.90;1.60;;;30.90;44.10;;;;;;5019983;28;20063;-72
2022/07/31 10:12:13;;;;;;;2.90;1.75;;;31.00;43.50;;;;;;5039068;28;20121;-72
2022/07/31 10:14:40;;;;;;;1.77;1.45;;;31.20;42.70;;;;;;5003453;28;20094;-73
2022/07/31 10:17:05;;;;;;;4.85;1.35;;;31.40;42.40;;;;;;5020962;28;20112;-74
2022/07/31 10:19:33;;;;;;;1.52;1.42;;;31.60;42.00;;;;;;5051001;28;20041;-71
2022/07/31 10:22:00;;;;;;;1.30;1.20;;;31.70;41.80;;;;;;5046672;28;20081;-71
2022/07/31 10:24:29;;;;;;;3.38;1.30;;;31.80;41.50;;;;;;5032399;28;20051;-72
2022/07/31 10:26:56;;;;;;;2.20;1.42;;;31.90;41.30;;;;;;5038139;28;20030;-71
2022/07/31 10:29:21;;;;;;;5.85;1.75;;;31.90;40.70;;;;;;5026196;28;20095;-71
2022/07/31 10:31:47;;;;;;;3.35;1.48;;;31.80;40.50;;;;;;5012198;28;20045;-72
2022/07/31 10:34:14;;;;;;;1.90;1.30;;;32.00;40.40;;;;;;5012634;28;20094;-72
2022/07/31 10:36:39;;;;;;;1.67;1.58;;;32.20;40.30;;;;;;4996814;28;20045;-72
2022/07/31 10:39:08;;;;;;;2.55;1.40;;;32.50;40.00;;;;;;4997410;28;20671;-72
2022/07/31 10:42:05;;;;;;;1.73;1.45;;;32.70;39.60;;;;;;5005334;28;20075;-72
2022/07/31 10:45:04;;;;;;;2.15;1.50;;;32.80;38.60;;;;;;4993234;28;20569;-72
2022/07/31 10:47:29;;;;;;;1.58;1.45;;;33.00;39.40;;;;;;5040489;28;20071;-71
2022/07/31 10:49:55;;;;;;;2.17;1.33;;;33.00;39.10;;;;;;5039362;28;20037;-71
2022/07/31 10:52:31;;;;;;;2.53;1.50;;;33.00;39.00;;;;;;5025373;28;20036;-73
2022/07/31 10:54:58;;;;;;;1.88;1.50;;;33.00;38.40;;;;;;5009182;28;20643;-71
2022/07/31 10:57:24;;;;;;;1.75;1.45;;;33.10;38.70;;;;;;5030617;28;20037;-73
2022/07/31 10:59:50;;;;;;;1.85;1.30;;;33.20;38.40;;;;;;5032311;28;20127;-74
2022/07/31 11:02:29;;;;;;;4.85;1.35;;;33.20;38.10;;;;;;5032717;28;20037;-71
2022/07/31 11:05:26;;;;;;;4.05;1.50;;;33.30;37.30;;;;;;5015486;28;20033;-71
2022/07/31 11:08:06;;;;;;;2.25;1.50;;;33.40;37.40;;;;;;5037962;28;20041;-72
2022/07/31 11:10:32;;;;;;;1.67;0.97;;;33.50;36.70;;;;;;5016135;28;20040;-71
2022/07/31 11:13:09;;;;;;;1.73;1.40;;;33.70;37.40;;;;;;5012183;28;20043;-71
2022/07/31 11:15:36;;;;;;;3.13;1.10;;;33.70;36.40;;;;;;5027705;28;20029;-71
2022/07/31 11:18:21;;;;;;;2.00;1.20;;;33.60;36.90;;;;;;5017208;28;20489;-72
2022/07/31 11:21:00;;;;;;;1.35;1.10;;;33.70;36.40;;;;;;5017019;28;20109;-72
2022/07/31 11:23:28;;;;;;;1.58;1.23;;;33.80;36.50;;;;;;4997725;28;20033;-73
2022/07/31 11:25:57;;;;;;;4.20;1.30;;;33.80;36.60;;;;;;5004898;28;20413;-71
2022/07/31 11:28:25;;;;;;;2.35;1.30;;;33.80;36.50;;;;;;5002092;28;20052;-71
2022/07/31 11:30:59;;;;;;;3.28;1.10;;;33.80;36.40;;;;;;5039098;28;20040;-72
2022/07/31 11:33:36;;;;;;;2.67;1.10;;;34.00;36.20;;;;;;5068893;28;20595;-72
2022/07/31 11:36:23;;;;;;;2.00;1.00;;;34.20;36.10;;;;;;5065738;28;20036;-72
2022/07/31 11:38:50;;;;;;;2.17;1.08;;;34.20;35.00;;;;;;5025782;28;20040;-71
2022/07/31 11:41:16;;;;;;;3.03;1.00;;;34.30;35.50;;;;;;5043424;28;20032;-71
2022/07/31 11:43:45;;;;;;;2.25;0.80;;;34.30;35.30;;;;;;5031507;28;20044;-71
2022/07/31 11:46:11;;;;;;;2.50;0.93;;;34.30;34.80;;;;;;5040374;28;20036;-73
2022/07/31 11:48:39;;;;;;;1.98;1.10;;;34.40;34.70;;;;;;5058227;28;20079;-73
2022/07/31 11:51:05;;;;;;;0.70;0.70;;;34.30;34.20;;;;;;4998748;28;20033;-72
2022/07/31 11:53:32;;;;;;;4.63;1.00;;;34.30;34.30;;;;;;5040390;28;20030;-73
2022/07/31 11:55:59;;;;;;;1.75;0.90;;;34.30;34.20;;;;;;5032074;28;20607;-72
2022/07/31 11:58:26;;;;;;;1.10;1.00;;;34.20;34.10;;;;;;5041065;28;20040;-72
2022/07/31 12:00:53;;;;;;;1.23;0.80;;;34.20;34.20;;;;;;5052850;28;20700;-72
2022/07/31 12:03:23;;;;;;;1.85;1.33;;;34.20;33.90;;;;;;5028439;28;20649;-71
2022/07/31 12:05:49;;;;;;;1.15;0.80;;;34.20;34.00;;;;;;5019194;28;20081;-72
2022/07/31 12:08:15;;;;;;;1.67;0.85;;;34.20;33.90;;;;;;5020907;28;20044;-71
2022/07/31 12:10:41;;;;;;;1.38;0.75;;;34.20;33.80;;;;;;4991572;28;20041;-72
2022/07/31 12:13:11;;;;;;;1.88;0.88;;;34.20;33.90;;;;;;5004356;28;20078;-73
2022/07/31 12:15:36;;;;;;;1.75;1.17;;;34.20;33.50;;;;;;5036952;28;20206;-74
2022/07/31 12:18:03;;;;;;;2.38;1.15;;;34.10;33.60;;;;;;5028418;28;20116;-74
2022/07/31 12:20:29;;;;;;;2.25;1.00;;;34.00;33.40;;;;;;5020381;28;20171;-72
2022/07/31 12:23:02;;;;;;;3.63;0.90;;;33.90;33.30;;;;;;5025096;28;20661;-72
2022/07/31 12:25:37;;;;;;;1.40;1.25;;;33.80;32.90;;;;;;5037888;28;20041;-74
2022/07/31 12:28:03;;;;;;;1.20;0.80;;;33.80;33.40;;;;;;5030877;28;20048;-73
2022/07/31 12:30:28;;;;;;;3.53;0.90;;;33.70;33.20;;;;;;5020662;28;20040;-73
2022/07/31 12:33:03;;;;;;;1.25;0.90;;;33.70;33.20;;;;;;5015487;28;20048;-73
2022/07/31 12:35:37;;;;;;;4.68;1.33;;;33.50;33.10;;;;;;5015933;28;20126;-74
2022/07/31 12:38:03;;;;;;;1.85;0.93;;;33.30;33.20;;;;;;5045882;28;20753;-74
2022/07/31 12:40:28;;;;;;;1.10;1.00;;;33.20;33.60;;;;;;5039951;28;20033;-74
2022/07/31 12:42:54;;;;;;;1.35;1.10;;;33.20;33.70;;;;;;5025052;28;20036;-73
2022/07/31 12:45:30;;;;;;;1.60;1.48;;;33.20;33.80;;;;;;5042073;28;20082;-73
2022/07/31 12:47:56;;;;;;;1.08;0.98;;;33.10;33.50;;;;;;5031628;28;20425;-74